Main page
METAR-TAF:

METAR-TAF

Airports :

Whiteside County Airport (Jos. H. Bittorf Field)

Sterling / Rock Falls, Illinois, United States

latitude: 41-45N, longitude: 089-40W, elevation: 646 ft

Current weather observation

The report was made 1 hour and 4 minutes ago, at 00:31 UTC
Wind 10 mph from the North/Northwest
Temperature 37°F
Humidity 93%
Pressure 29.97 in. Hg
Visibility: 10 miles
Few clouds at a height of 1500 ft
Broken clouds at a height of 2600 ft

METAR: KSQI 270031Z AUTO 33009KT 10SM FEW015 BKN026 03/02 A2997 RMK AO2

Time: 20:35 (01:35 UTC)


TAF: missing

Weather observations and forecasts of more than 4000 airports (METAR and TAF reports).

The available stations are represented by yellow and red dots on the map.

Hover mouse over dot to see the name of the station.

Then click to see weather observations and forecasts.

To change the map : click on the green buttons with a black cross to zoom in, on the green button with a dash to zoom out, or on the green arrows for adjacent maps.


METAR-TAF: